sensor_id;sensor_type;location;lat;lon;timestamp;P1;durP1;ratioP1;P2;durP2;ratioP2
51636;SDS011;37713;53.254;6.460;2022-08-01T00:00:33;7.80;;;3.60;;
51636;SDS011;37713;53.254;6.460;2022-08-01T00:02:59;7.00;;;3.25;;
51636;SDS011;37713;53.254;6.460;2022-08-01T00:05:25;5.70;;;3.15;;
51636;SDS011;37713;53.254;6.460;2022-08-01T00:07:51;5.22;;;2.90;;
51636;SDS011;37713;53.254;6.460;2022-08-01T00:10:17;10.52;;;2.90;;
51636;SDS011;37713;53.254;6.460;2022-08-01T00:12:43;5.45;;;2.75;;
51636;SDS011;37713;53.254;6.460;2022-08-01T00:15:10;6.47;;;2.70;;
51636;SDS011;37713;53.254;6.460;2022-08-01T00:17:38;5.63;;;2.58;;
51636;SDS011;37713;53.254;6.460;2022-08-01T00:20:07;6.93;;;2.80;;
51636;SDS011;37713;53.254;6.460;2022-08-01T00:22:34;5.30;;;2.47;;
51636;SDS011;37713;53.254;6.460;2022-08-01T00:25:00;7.68;;;2.53;;
51636;SDS011;37713;53.254;6.460;2022-08-01T00:27:27;7.28;;;2.88;;
51636;SDS011;37713;53.254;6.460;2022-08-01T00:29:52;7.18;;;3.65;;
51636;SDS011;37713;53.254;6.460;2022-08-01T00:32:18;9.07;;;3.60;;
51636;SDS011;37713;53.254;6.460;2022-08-01T00:34:44;6.78;;;3.70;;
51636;SDS011;37713;53.254;6.460;2022-08-01T00:37:10;7.72;;;4.18;;
51636;SDS011;37713;53.254;6.460;2022-08-01T00:39:36;8.70;;;4.60;;
51636;SDS011;37713;53.254;6.460;2022-08-01T00:42:05;8.05;;;4.05;;
51636;SDS011;37713;53.254;6.460;2022-08-01T00:44:33;9.32;;;4.50;;
51636;SDS011;37713;53.254;6.460;2022-08-01T00:46:59;7.55;;;4.18;;
51636;SDS011;37713;53.254;6.460;2022-08-01T00:49:25;10.40;;;3.95;;
51636;SDS011;37713;53.254;6.460;2022-08-01T00:51:51;8.60;;;3.72;;
51636;SDS011;37713;53.254;6.460;2022-08-01T00:54:17;7.75;;;3.20;;
51636;SDS011;37713;53.254;6.460;2022-08-01T00:56:43;7.00;;;3.05;;
51636;SDS011;37713;53.254;6.460;2022-08-01T00:59:11;6.97;;;3.05;;
51636;SDS011;37713;53.254;6.460;2022-08-01T01:01:37;12.70;;;3.42;;
51636;SDS011;37713;53.254;6.460;2022-08-01T01:04:03;10.38;;;3.10;;
51636;SDS011;37713;53.254;6.460;2022-08-01T01:06:48;7.15;;;2.42;;
51636;SDS011;37713;53.254;6.460;2022-08-01T01:12:31;8.07;;;2.30;;
51636;SDS011;37713;53.254;6.460;2022-08-01T01:15:06;8.13;;;2.28;;
51636;SDS011;37713;53.254;6.460;2022-08-01T01:17:48;4.88;;;1.80;;
51636;SDS011;37713;53.254;6.460;2022-08-01T01:20:18;7.30;;;1.90;;
51636;SDS011;37713;53.254;6.460;2022-08-01T01:23:05;6.68;;;2.08;;
51636;SDS011;37713;53.254;6.460;2022-08-01T01:31:43;7.80;;;2.00;;
51636;SDS011;37713;53.254;6.460;2022-08-01T01:34:11;11.93;;;2.65;;
51636;SDS011;37713;53.254;6.460;2022-08-01T01:36:40;9.35;;;1.95;;
51636;SDS011;37713;53.254;6.460;2022-08-01T01:39:08;10.70;;;2.20;;
51636;SDS011;37713;53.254;6.460;2022-08-01T01:41:35;7.00;;;1.70;;
51636;SDS011;37713;53.254;6.460;2022-08-01T01:44:02;7.90;;;1.80;;
51636;SDS011;37713;53.254;6.460;2022-08-01T01:46:30;7.30;;;2.17;;
51636;SDS011;37713;53.254;6.460;2022-08-01T01:48:57;8.35;;;2.00;;
51636;SDS011;37713;53.254;6.460;2022-08-01T01:51:25;9.25;;;2.17;;
51636;SDS011;37713;53.254;6.460;2022-08-01T01:53:53;10.98;;;2.15;;
51636;SDS011;37713;53.254;6.460;2022-08-01T01:56:20;6.93;;;1.92;;
51636;SDS011;37713;53.254;6.460;2022-08-01T01:58:55;6.28;;;1.95;;
51636;SDS011;37713;53.254;6.460;2022-08-01T02:01:25;5.80;;;1.65;;
51636;SDS011;37713;53.254;6.460;2022-08-01T02:03:55;7.55;;;1.80;;
51636;SDS011;37713;53.254;6.460;2022-08-01T02:06:22;5.97;;;1.65;;
51636;SDS011;37713;53.254;6.460;2022-08-01T02:08:49;6.97;;;1.85;;
51636;SDS011;37713;53.254;6.460;2022-08-01T02:11:17;7.13;;;2.42;;
51636;SDS011;37713;53.254;6.460;2022-08-01T02:13:51;11.43;;;2.33;;
51636;SDS011;37713;53.254;6.460;2022-08-01T02:16:21;11.70;;;2.88;;
51636;SDS011;37713;53.254;6.460;2022-08-01T02:18:50;11.45;;;2.80;;
51636;SDS011;37713;53.254;6.460;2022-08-01T02:21:16;7.53;;;2.60;;
51636;SDS011;37713;53.254;6.460;2022-08-01T02:24:14;13.93;;;3.10;;
51636;SDS011;37713;53.254;6.460;2022-08-01T02:26:49;9.85;;;3.08;;
51636;SDS011;37713;53.254;6.460;2022-08-01T02:32:26;10.93;;;2.90;;
51636;SDS011;37713;53.254;6.460;2022-08-01T02:34:56;11.15;;;3.22;;
51636;SDS011;37713;53.254;6.460;2022-08-01T02:37:24;15.95;;;3.70;;
51636;SDS011;37713;53.254;6.460;2022-08-01T02:39:54;12.43;;;3.17;;
51636;SDS011;37713;53.254;6.460;2022-08-01T02:42:20;12.90;;;3.17;;
51636;SDS011;37713;53.254;6.460;2022-08-01T02:44:49;13.70;;;3.03;;
51636;SDS011;37713;53.254;6.460;2022-08-01T02:47:17;12.93;;;3.08;;
51636;SDS011;37713;53.254;6.460;2022-08-01T02:49:46;13.15;;;3.10;;
51636;SDS011;37713;53.254;6.460;2022-08-01T02:52:14;9.32;;;2.80;;
51636;SDS011;37713;53.254;6.460;2022-08-01T02:54:42;11.18;;;3.00;;
51636;SDS011;37713;53.254;6.460;2022-08-01T02:57:09;15.38;;;4.18;;
51636;SDS011;37713;53.254;6.460;2022-08-01T02:59:38;12.52;;;3.03;;
51636;SDS011;37713;53.254;6.460;2022-08-01T03:02:05;12.68;;;3.28;;
51636;SDS011;37713;53.254;6.460;2022-08-01T03:04:33;11.18;;;3.58;;
51636;SDS011;37713;53.254;6.460;2022-08-01T03:07:01;11.23;;;3.40;;
51636;SDS011;37713;53.254;6.460;2022-08-01T03:09:29;9.05;;;3.00;;
51636;SDS011;37713;53.254;6.460;2022-08-01T03:11:59;10.80;;;3.38;;
51636;SDS011;37713;53.254;6.460;2022-08-01T03:16:55;10.32;;;3.15;;
51636;SDS011;37713;53.254;6.460;2022-08-01T03:19:24;10.45;;;3.25;;
51636;SDS011;37713;53.254;6.460;2022-08-01T03:21:52;11.85;;;3.15;;
51636;SDS011;37713;53.254;6.460;2022-08-01T03:24:20;15.30;;;3.90;;
51636;SDS011;37713;53.254;6.460;2022-08-01T03:26:48;12.55;;;3.35;;
51636;SDS011;37713;53.254;6.460;2022-08-01T03:29:18;13.40;;;3.30;;
51636;SDS011;37713;53.254;6.460;2022-08-01T03:31:47;14.88;;;3.30;;
51636;SDS011;37713;53.254;6.460;2022-08-01T03:34:14;13.52;;;3.15;;
51636;SDS011;37713;53.254;6.460;2022-08-01T03:39:16;11.13;;;3.10;;
51636;SDS011;37713;53.254;6.460;2022-08-01T03:41:49;12.48;;;3.35;;
51636;SDS011;37713;53.254;6.460;2022-08-01T03:44:20;9.95;;;2.42;;
51636;SDS011;37713;53.254;6.460;2022-08-01T03:49:26;9.93;;;3.08;;
51636;SDS011;37713;53.254;6.460;2022-08-01T03:51:56;16.95;;;3.30;;
51636;SDS011;37713;53.254;6.460;2022-08-01T03:54:24;15.32;;;3.42;;
51636;SDS011;37713;53.254;6.460;2022-08-01T03:56:52;13.48;;;2.70;;
51636;SDS011;37713;53.254;6.460;2022-08-01T03:59:19;12.80;;;3.50;;
51636;SDS011;37713;53.254;6.460;2022-08-01T04:01:46;12.23;;;2.63;;
51636;SDS011;37713;53.254;6.460;2022-08-01T04:04:13;10.50;;;3.13;;
51636;SDS011;37713;53.254;6.460;2022-08-01T04:06:43;12.02;;;3.05;;
51636;SDS011;37713;53.254;6.460;2022-08-01T04:09:10;14.50;;;2.90;;
51636;SDS011;37713;53.254;6.460;2022-08-01T04:11:37;10.80;;;2.97;;
51636;SDS011;37713;53.254;6.460;2022-08-01T04:14:03;10.93;;;2.53;;
51636;SDS011;37713;53.254;6.460;2022-08-01T04:16:29;15.25;;;3.17;;
51636;SDS011;37713;53.254;6.460;2022-08-01T04:18:55;12.93;;;2.85;;
51636;SDS011;37713;53.254;6.460;2022-08-01T04:21:22;14.93;;;3.00;;
51636;SDS011;37713;53.254;6.460;2022-08-01T04:23:52;17.75;;;3.42;;
51636;SDS011;37713;53.254;6.460;2022-08-01T04:26:22;13.13;;;2.65;;
51636;SDS011;37713;53.254;6.460;2022-08-01T04:28:51;19.05;;;3.72;;
51636;SDS011;37713;53.254;6.460;2022-08-01T04:31:19;19.83;;;3.25;;
51636;SDS011;37713;53.254;6.460;2022-08-01T04:33:47;13.75;;;3.00;;
51636;SDS011;37713;53.254;6.460;2022-08-01T04:36:17;20.13;;;4.37;;
51636;SDS011;37713;53.254;6.460;2022-08-01T04:38:48;15.93;;;2.97;;
51636;SDS011;37713;53.254;6.460;2022-08-01T04:41:19;15.10;;;3.10;;
51636;SDS011;37713;53.254;6.460;2022-08-01T04:43:47;18.75;;;3.25;;
51636;SDS011;37713;53.254;6.460;2022-08-01T04:46:13;14.30;;;2.80;;
51636;SDS011;37713;53.254;6.460;2022-08-01T04:48:40;15.88;;;3.10;;
51636;SDS011;37713;53.254;6.460;2022-08-01T04:51:17;14.15;;;2.78;;
51636;SDS011;37713;53.254;6.460;2022-08-01T04:56:13;15.95;;;2.97;;
51636;SDS011;37713;53.254;6.460;2022-08-01T04:58:39;17.30;;;2.92;;
51636;SDS011;37713;53.254;6.460;2022-08-01T05:01:06;13.43;;;3.17;;
51636;SDS011;37713;53.254;6.460;2022-08-01T05:03:32;18.02;;;3.28;;
51636;SDS011;37713;53.254;6.460;2022-08-01T05:05:58;16.17;;;3.10;;
51636;SDS011;37713;53.254;6.460;2022-08-01T05:08:24;14.43;;;3.35;;
51636;SDS011;37713;53.254;6.460;2022-08-01T05:10:50;15.48;;;3.35;;
51636;SDS011;37713;53.254;6.460;2022-08-01T05:13:16;14.80;;;2.97;;
51636;SDS011;37713;53.254;6.460;2022-08-01T05:15:42;13.40;;;2.58;;
51636;SDS011;37713;53.254;6.460;2022-08-01T05:18:08;15.13;;;2.85;;
51636;SDS011;37713;53.254;6.460;2022-08-01T05:20:34;18.88;;;3.17;;
51636;SDS011;37713;53.254;6.460;2022-08-01T05:23:01;16.02;;;2.72;;
51636;SDS011;37713;53.254;6.460;2022-08-01T05:25:28;18.55;;;3.20;;
51636;SDS011;37713;53.254;6.460;2022-08-01T05:27:53;18.77;;;3.55;;
51636;SDS011;37713;53.254;6.460;2022-08-01T05:30:19;18.40;;;3.20;;
51636;SDS011;37713;53.254;6.460;2022-08-01T05:32:45;15.48;;;3.05;;
51636;SDS011;37713;53.254;6.460;2022-08-01T05:35:11;15.05;;;3.13;;
51636;SDS011;37713;53.254;6.460;2022-08-01T05:37:37;15.23;;;3.00;;
51636;SDS011;37713;53.254;6.460;2022-08-01T05:40:03;17.20;;;3.40;;
51636;SDS011;37713;53.254;6.460;2022-08-01T05:42:29;14.25;;;3.13;;
51636;SDS011;37713;53.254;6.460;2022-08-01T05:44:55;16.40;;;3.80;;
51636;SDS011;37713;53.254;6.460;2022-08-01T05:47:21;12.95;;;3.83;;
51636;SDS011;37713;53.254;6.460;2022-08-01T05:49:47;17.20;;;3.38;;
51636;SDS011;37713;53.254;6.460;2022-08-01T05:52:12;13.82;;;3.20;;
51636;SDS011;37713;53.254;6.460;2022-08-01T05:54:39;19.95;;;3.70;;
51636;SDS011;37713;53.254;6.460;2022-08-01T05:57:04;17.33;;;3.40;;
51636;SDS011;37713;53.254;6.460;2022-08-01T05:59:31;14.15;;;2.70;;
51636;SDS011;37713;53.254;6.460;2022-08-01T06:01:57;19.42;;;3.58;;
51636;SDS011;37713;53.254;6.460;2022-08-01T06:04:22;16.05;;;3.40;;
51636;SDS011;37713;53.254;6.460;2022-08-01T06:06:48;16.38;;;3.47;;
51636;SDS011;37713;53.254;6.460;2022-08-01T06:09:14;20.77;;;3.28;;
51636;SDS011;37713;53.254;6.460;2022-08-01T06:11:40;15.02;;;3.10;;
51636;SDS011;37713;53.254;6.460;2022-08-01T06:14:06;15.30;;;2.80;;
51636;SDS011;37713;53.254;6.460;2022-08-01T06:16:32;15.38;;;3.20;;
51636;SDS011;37713;53.254;6.460;2022-08-01T06:18:58;16.98;;;2.97;;
51636;SDS011;37713;53.254;6.460;2022-08-01T06:21:24;14.05;;;2.83;;
51636;SDS011;37713;53.254;6.460;2022-08-01T06:23:49;14.77;;;2.83;;
51636;SDS011;37713;53.254;6.460;2022-08-01T06:26:18;16.95;;;3.50;;
51636;SDS011;37713;53.254;6.460;2022-08-01T06:28:45;12.27;;;2.47;;
51636;SDS011;37713;53.254;6.460;2022-08-01T06:31:11;14.82;;;3.03;;
51636;SDS011;37713;53.254;6.460;2022-08-01T06:33:38;16.92;;;2.92;;
51636;SDS011;37713;53.254;6.460;2022-08-01T06:36:04;14.77;;;2.20;;
51636;SDS011;37713;53.254;6.460;2022-08-01T06:38:30;14.88;;;2.55;;
51636;SDS011;37713;53.254;6.460;2022-08-01T06:40:56;10.35;;;2.40;;
51636;SDS011;37713;53.254;6.460;2022-08-01T06:43:22;14.20;;;2.67;;
51636;SDS011;37713;53.254;6.460;2022-08-01T06:45:48;15.45;;;2.85;;
51636;SDS011;37713;53.254;6.460;2022-08-01T06:48:14;15.18;;;2.45;;
51636;SDS011;37713;53.254;6.460;2022-08-01T06:50:40;12.35;;;2.60;;
51636;SDS011;37713;53.254;6.460;2022-08-01T06:53:06;13.88;;;2.40;;
51636;SDS011;37713;53.254;6.460;2022-08-01T06:55:31;15.15;;;2.30;;
51636;SDS011;37713;53.254;6.460;2022-08-01T06:57:57;11.45;;;2.53;;
51636;SDS011;37713;53.254;6.460;2022-08-01T07:00:23;14.00;;;2.15;;
51636;SDS011;37713;53.254;6.460;2022-08-01T07:02:54;15.93;;;2.53;;
51636;SDS011;37713;53.254;6.460;2022-08-01T07:05:21;15.20;;;2.10;;
51636;SDS011;37713;53.254;6.460;2022-08-01T07:07:47;13.13;;;2.72;;
51636;SDS011;37713;53.254;6.460;2022-08-01T07:10:13;13.02;;;2.13;;
51636;SDS011;37713;53.254;6.460;2022-08-01T07:12:39;11.82;;;2.58;;
51636;SDS011;37713;53.254;6.460;2022-08-01T07:15:06;10.95;;;2.53;;
51636;SDS011;37713;53.254;6.460;2022-08-01T07:17:39;9.80;;;1.83;;
51636;SDS011;37713;53.254;6.460;2022-08-01T07:20:06;10.85;;;2.10;;
51636;SDS011;37713;53.254;6.460;2022-08-01T07:22:33;9.93;;;2.00;;
51636;SDS011;37713;53.254;6.460;2022-08-01T07:24:59;14.40;;;1.95;;
51636;SDS011;37713;53.254;6.460;2022-08-01T07:27:25;10.52;;;1.70;;
51636;SDS011;37713;53.254;6.460;2022-08-01T07:29:50;11.55;;;1.75;;
51636;SDS011;37713;53.254;6.460;2022-08-01T07:32:16;15.55;;;2.20;;
51636;SDS011;37713;53.254;6.460;2022-08-01T07:34:42;10.30;;;1.80;;
51636;SDS011;37713;53.254;6.460;2022-08-01T07:37:08;10.60;;;2.03;;
51636;SDS011;37713;53.254;6.460;2022-08-01T07:39:33;9.48;;;1.65;;
51636;SDS011;37713;53.254;6.460;2022-08-01T07:41:59;9.07;;;2.00;;
51636;SDS011;37713;53.254;6.460;2022-08-01T07:44:25;9.23;;;1.85;;
51636;SDS011;37713;53.254;6.460;2022-08-01T07:46:51;13.93;;;1.85;;
51636;SDS011;37713;53.254;6.460;2022-08-01T07:49:17;10.45;;;1.60;;
51636;SDS011;37713;53.254;6.460;2022-08-01T07:51:42;12.60;;;2.08;;
51636;SDS011;37713;53.254;6.460;2022-08-01T07:54:08;11.68;;;1.77;;
51636;SDS011;37713;53.254;6.460;2022-08-01T07:56:34;9.07;;;1.77;;
51636;SDS011;37713;53.254;6.460;2022-08-01T07:59:00;9.23;;;1.95;;
51636;SDS011;37713;53.254;6.460;2022-08-01T08:01:25;10.73;;;1.80;;
51636;SDS011;37713;53.254;6.460;2022-08-01T08:03:52;12.57;;;2.13;;
51636;SDS011;37713;53.254;6.460;2022-08-01T08:06:18;8.93;;;1.30;;
51636;SDS011;37713;53.254;6.460;2022-08-01T08:08:43;12.50;;;1.50;;
51636;SDS011;37713;53.254;6.460;2022-08-01T08:11:09;8.10;;;1.92;;
51636;SDS011;37713;53.254;6.460;2022-08-01T08:13:35;9.13;;;1.60;;
51636;SDS011;37713;53.254;6.460;2022-08-01T08:16:01;7.53;;;1.63;;
51636;SDS011;37713;53.254;6.460;2022-08-01T08:18:27;9.07;;;1.83;;
51636;SDS011;37713;53.254;6.460;2022-08-01T08:20:53;8.40;;;1.50;;
51636;SDS011;37713;53.254;6.460;2022-08-01T08:23:19;10.07;;;2.30;;
51636;SDS011;37713;53.254;6.460;2022-08-01T08:26:03;11.27;;;1.55;;
51636;SDS011;37713;53.254;6.460;2022-08-01T08:28:29;12.07;;;1.88;;
51636;SDS011;37713;53.254;6.460;2022-08-01T08:30:54;7.50;;;1.58;;
51636;SDS011;37713;53.254;6.460;2022-08-01T08:33:20;11.68;;;2.13;;
51636;SDS011;37713;53.254;6.460;2022-08-01T08:35:46;8.80;;;1.67;;
51636;SDS011;37713;53.254;6.460;2022-08-01T08:38:12;10.80;;;1.70;;
51636;SDS011;37713;53.254;6.460;2022-08-01T08:40:38;11.93;;;1.90;;
51636;SDS011;37713;53.254;6.460;2022-08-01T08:43:04;13.07;;;1.95;;
51636;SDS011;37713;53.254;6.460;2022-08-01T08:45:31;9.10;;;1.80;;
51636;SDS011;37713;53.254;6.460;2022-08-01T08:47:57;10.60;;;1.85;;
51636;SDS011;37713;53.254;6.460;2022-08-01T08:50:24;9.57;;;1.90;;
51636;SDS011;37713;53.254;6.460;2022-08-01T08:52:52;11.68;;;1.75;;
51636;SDS011;37713;53.254;6.460;2022-08-01T08:55:19;9.82;;;1.40;;
51636;SDS011;37713;53.254;6.460;2022-08-01T08:57:46;15.38;;;2.65;;
51636;SDS011;37713;53.254;6.460;2022-08-01T09:00:13;11.15;;;2.15;;
51636;SDS011;37713;53.254;6.460;2022-08-01T09:02:44;9.10;;;1.58;;
51636;SDS011;37713;53.254;6.460;2022-08-01T09:05:11;10.75;;;1.75;;
51636;SDS011;37713;53.254;6.460;2022-08-01T09:07:38;13.93;;;1.92;;
51636;SDS011;37713;53.254;6.460;2022-08-01T09:10:04;11.27;;;1.90;;
51636;SDS011;37713;53.254;6.460;2022-08-01T09:12:30;8.82;;;1.70;;
51636;SDS011;37713;53.254;6.460;2022-08-01T09:14:56;11.55;;;1.80;;
51636;SDS011;37713;53.254;6.460;2022-08-01T09:17:23;11.00;;;1.70;;
51636;SDS011;37713;53.254;6.460;2022-08-01T09:19:50;10.10;;;1.95;;
51636;SDS011;37713;53.254;6.460;2022-08-01T09:22:18;9.45;;;1.60;;
51636;SDS011;37713;53.254;6.460;2022-08-01T09:24:58;7.53;;;1.70;;
51636;SDS011;37713;53.254;6.460;2022-08-01T09:27:26;9.20;;;1.42;;
51636;SDS011;37713;53.254;6.460;2022-08-01T09:29:53;9.75;;;1.70;;
51636;SDS011;37713;53.254;6.460;2022-08-01T09:32:20;8.18;;;1.40;;
51636;SDS011;37713;53.254;6.460;2022-08-01T09:34:46;5.68;;;1.40;;
51636;SDS011;37713;53.254;6.460;2022-08-01T09:37:12;10.65;;;1.58;;
51636;SDS011;37713;53.254;6.460;2022-08-01T09:39:43;9.38;;;1.63;;
51636;SDS011;37713;53.254;6.460;2022-08-01T09:42:23;8.80;;;1.42;;
51636;SDS011;37713;53.254;6.460;2022-08-01T09:44:50;7.47;;;1.23;;
51636;SDS011;37713;53.254;6.460;2022-08-01T09:47:16;8.23;;;1.75;;
51636;SDS011;37713;53.254;6.460;2022-08-01T09:49:45;8.33;;;1.50;;
51636;SDS011;37713;53.254;6.460;2022-08-01T09:52:22;8.43;;;1.52;;
51636;SDS011;37713;53.254;6.460;2022-08-01T09:57:21;10.05;;;1.50;;
51636;SDS011;37713;53.254;6.460;2022-08-01T09:59:48;9.45;;;1.60;;
51636;SDS011;37713;53.254;6.460;2022-08-01T10:05:02;10.25;;;1.35;;
51636;SDS011;37713;53.254;6.460;2022-08-01T10:07:30;6.38;;;1.27;;
51636;SDS011;37713;53.254;6.460;2022-08-01T10:10:08;8.07;;;1.55;;
51636;SDS011;37713;53.254;6.460;2022-08-01T10:12:38;8.13;;;1.33;;
51636;SDS011;37713;53.254;6.460;2022-08-01T10:15:06;6.75;;;1.30;;
51636;SDS011;37713;53.254;6.460;2022-08-01T10:17:32;8.73;;;1.35;;
51636;SDS011;37713;53.254;6.460;2022-08-01T10:19:59;7.93;;;1.20;;
51636;SDS011;37713;53.254;6.460;2022-08-01T10:22:27;6.85;;;1.50;;
51636;SDS011;37713;53.254;6.460;2022-08-01T10:24:56;9.85;;;1.60;;
51636;SDS011;37713;53.254;6.460;2022-08-01T10:27:25;9.17;;;1.43;;
51636;SDS011;37713;53.254;6.460;2022-08-01T10:29:56;6.30;;;1.35;;
51636;SDS011;37713;53.254;6.460;2022-08-01T10:32:29;9.63;;;1.40;;
51636;SDS011;37713;53.254;6.460;2022-08-01T10:34:55;7.72;;;1.35;;
51636;SDS011;37713;53.254;6.460;2022-08-01T10:37:22;7.38;;;1.25;;
51636;SDS011;37713;53.254;6.460;2022-08-01T10:39:48;8.02;;;1.40;;
51636;SDS011;37713;53.254;6.460;2022-08-01T10:42:16;10.55;;;1.30;;
51636;SDS011;37713;53.254;6.460;2022-08-01T10:44:43;7.57;;;1.40;;
51636;SDS011;37713;53.254;6.460;2022-08-01T10:47:21;5.60;;;1.20;;
51636;SDS011;37713;53.254;6.460;2022-08-01T10:50:04;10.43;;;2.65;;
51636;SDS011;37713;53.254;6.460;2022-08-01T10:52:38;10.05;;;1.70;;
51636;SDS011;37713;53.254;6.460;2022-08-01T10:55:06;6.95;;;1.20;;
51636;SDS011;37713;53.254;6.460;2022-08-01T10:57:47;7.47;;;1.20;;
51636;SDS011;37713;53.254;6.460;2022-08-01T11:00:19;6.97;;;1.20;;
51636;SDS011;37713;53.254;6.460;2022-08-01T11:02:59;5.70;;;1.45;;
51636;SDS011;37713;53.254;6.460;2022-08-01T11:05:30;5.32;;;1.10;;
51636;SDS011;37713;53.254;6.460;2022-08-01T11:07:58;8.55;;;1.15;;
51636;SDS011;37713;53.254;6.460;2022-08-01T11:10:38;9.10;;;1.50;;
51636;SDS011;37713;53.254;6.460;2022-08-01T11:13:06;9.02;;;1.30;;
51636;SDS011;37713;53.254;6.460;2022-08-01T11:15:36;5.28;;;1.20;;
51636;SDS011;37713;53.254;6.460;2022-08-01T11:18:04;8.38;;;1.38;;
51636;SDS011;37713;53.254;6.460;2022-08-01T11:20:56;6.68;;;1.20;;
51636;SDS011;37713;53.254;6.460;2022-08-01T11:23:24;11.07;;;1.52;;
51636;SDS011;37713;53.254;6.460;2022-08-01T11:28:31;5.03;;;1.10;;
51636;SDS011;37713;53.254;6.460;2022-08-01T11:38:35;7.67;;;1.00;;
51636;SDS011;37713;53.254;6.460;2022-08-01T11:52:03;6.15;;;1.00;;
51636;SDS011;37713;53.254;6.460;2022-08-01T11:54:33;7.13;;;1.05;;
51636;SDS011;37713;53.254;6.460;2022-08-01T11:57:04;4.35;;;1.00;;
51636;SDS011;37713;53.254;6.460;2022-08-01T11:59:39;6.95;;;1.30;;
51636;SDS011;37713;53.254;6.460;2022-08-01T12:02:33;6.85;;;1.08;;
51636;SDS011;37713;53.254;6.460;2022-08-01T12:07:30;6.20;;;0.93;;
51636;SDS011;37713;53.254;6.460;2022-08-01T12:09:58;7.68;;;1.48;;
51636;SDS011;37713;53.254;6.460;2022-08-01T12:12:25;6.25;;;1.52;;
51636;SDS011;37713;53.254;6.460;2022-08-01T12:14:53;6.70;;;1.30;;
51636;SDS011;37713;53.254;6.460;2022-08-01T12:17:42;6.28;;;1.10;;
51636;SDS011;37713;53.254;6.460;2022-08-01T12:20:15;5.60;;;1.20;;
51636;SDS011;37713;53.254;6.460;2022-08-01T12:22:45;8.02;;;1.38;;
51636;SDS011;37713;53.254;6.460;2022-08-01T12:25:12;5.88;;;1.17;;
51636;SDS011;37713;53.254;6.460;2022-08-01T12:27:39;7.50;;;1.10;;
51636;SDS011;37713;53.254;6.460;2022-08-01T12:30:10;7.97;;;1.75;;
51636;SDS011;37713;53.254;6.460;2022-08-01T12:32:38;7.78;;;1.27;;
51636;SDS011;37713;53.254;6.460;2022-08-01T12:35:09;6.00;;;1.15;;
51636;SDS011;37713;53.254;6.460;2022-08-01T12:37:38;8.63;;;1.27;;
51636;SDS011;37713;53.254;6.460;2022-08-01T12:42:49;10.10;;;1.52;;
51636;SDS011;37713;53.254;6.460;2022-08-01T12:48:09;6.78;;;1.20;;
51636;SDS011;37713;53.254;6.460;2022-08-01T12:50:41;5.15;;;1.23;;
51636;SDS011;37713;53.254;6.460;2022-08-01T12:53:11;6.40;;;1.30;;
51636;SDS011;37713;53.254;6.460;2022-08-01T12:55:52;4.30;;;0.95;;
51636;SDS011;37713;53.254;6.460;2022-08-01T12:58:20;7.60;;;1.40;;
51636;SDS011;37713;53.254;6.460;2022-08-01T13:00:50;3.13;;;0.82;;
51636;SDS011;37713;53.254;6.460;2022-08-01T13:03:27;10.60;;;1.30;;
51636;SDS011;37713;53.254;6.460;2022-08-01T13:05:56;9.00;;;1.50;;
51636;SDS011;37713;53.254;6.460;2022-08-01T13:08:24;10.05;;;1.38;;
51636;SDS011;37713;53.254;6.460;2022-08-01T13:11:05;7.53;;;1.65;;
51636;SDS011;37713;53.254;6.460;2022-08-01T13:13:43;7.97;;;1.27;;
51636;SDS011;37713;53.254;6.460;2022-08-01T13:16:19;8.68;;;1.20;;
51636;SDS011;37713;53.254;6.460;2022-08-01T13:18:48;7.22;;;1.58;;
51636;SDS011;37713;53.254;6.460;2022-08-01T13:21:27;5.65;;;0.98;;
51636;SDS011;37713;53.254;6.460;2022-08-01T13:24:11;7.15;;;1.38;;
51636;SDS011;37713;53.254;6.460;2022-08-01T13:26:39;10.23;;;1.40;;
51636;SDS011;37713;53.254;6.460;2022-08-01T13:29:10;5.50;;;1.00;;
51636;SDS011;37713;53.254;6.460;2022-08-01T13:31:38;6.22;;;1.10;;
51636;SDS011;37713;53.254;6.460;2022-08-01T13:34:05;6.75;;;1.30;;
51636;SDS011;37713;53.254;6.460;2022-08-01T13:36:31;8.27;;;4.28;;
51636;SDS011;37713;53.254;6.460;2022-08-01T13:38:58;5.18;;;1.25;;
51636;SDS011;37713;53.254;6.460;2022-08-01T13:41:43;5.32;;;0.93;;
51636;SDS011;37713;53.254;6.460;2022-08-01T13:44:10;7.95;;;1.15;;
51636;SDS011;37713;53.254;6.460;2022-08-01T13:46:36;7.72;;;1.05;;
51636;SDS011;37713;53.254;6.460;2022-08-01T13:51:32;7.25;;;1.30;;
51636;SDS011;37713;53.254;6.460;2022-08-01T13:53:58;5.90;;;1.05;;
51636;SDS011;37713;53.254;6.460;2022-08-01T13:56:24;9.00;;;1.20;;
51636;SDS011;37713;53.254;6.460;2022-08-01T13:58:52;9.48;;;1.27;;
51636;SDS011;37713;53.254;6.460;2022-08-01T14:01:19;6.63;;;1.33;;
51636;SDS011;37713;53.254;6.460;2022-08-01T14:03:45;7.15;;;1.30;;
51636;SDS011;37713;53.254;6.460;2022-08-01T14:06:12;7.85;;;1.45;;
51636;SDS011;37713;53.254;6.460;2022-08-01T14:08:39;8.65;;;1.20;;
51636;SDS011;37713;53.254;6.460;2022-08-01T14:11:05;27.45;;;16.60;;
51636;SDS011;37713;53.254;6.460;2022-08-01T14:13:31;9.30;;;1.80;;
51636;SDS011;37713;53.254;6.460;2022-08-01T14:15:58;8.85;;;1.70;;
51636;SDS011;37713;53.254;6.460;2022-08-01T14:18:24;11.15;;;1.77;;
51636;SDS011;37713;53.254;6.460;2022-08-01T14:20:51;5.90;;;1.40;;
51636;SDS011;37713;53.254;6.460;2022-08-01T14:23:17;9.43;;;1.48;;
51636;SDS011;37713;53.254;6.460;2022-08-01T14:25:43;9.38;;;1.40;;
51636;SDS011;37713;53.254;6.460;2022-08-01T14:28:09;14.38;;;1.70;;
51636;SDS011;37713;53.254;6.460;2022-08-01T14:30:35;4.60;;;1.27;;
51636;SDS011;37713;53.254;6.460;2022-08-01T14:33:01;6.18;;;1.67;;
51636;SDS011;37713;53.254;6.460;2022-08-01T14:35:28;8.90;;;1.50;;
51636;SDS011;37713;53.254;6.460;2022-08-01T14:37:54;7.45;;;1.35;;
51636;SDS011;37713;53.254;6.460;2022-08-01T14:40:20;6.93;;;1.40;;
51636;SDS011;37713;53.254;6.460;2022-08-01T14:42:45;6.53;;;1.40;;
51636;SDS011;37713;53.254;6.460;2022-08-01T14:45:12;7.50;;;1.40;;
51636;SDS011;37713;53.254;6.460;2022-08-01T14:47:39;6.45;;;1.30;;
51636;SDS011;37713;53.254;6.460;2022-08-01T14:50:07;5.70;;;1.10;;
51636;SDS011;37713;53.254;6.460;2022-08-01T14:52:35;7.47;;;1.70;;
51636;SDS011;37713;53.254;6.460;2022-08-01T14:55:02;8.30;;;1.52;;
51636;SDS011;37713;53.254;6.460;2022-08-01T14:57:30;8.25;;;2.15;;
51636;SDS011;37713;53.254;6.460;2022-08-01T14:59:56;13.25;;;4.57;;
51636;SDS011;37713;53.254;6.460;2022-08-01T15:02:22;9.40;;;1.60;;
51636;SDS011;37713;53.254;6.460;2022-08-01T15:04:48;9.10;;;1.73;;
51636;SDS011;37713;53.254;6.460;2022-08-01T15:07:15;6.55;;;1.50;;
51636;SDS011;37713;53.254;6.460;2022-08-01T15:09:42;5.90;;;1.35;;
51636;SDS011;37713;53.254;6.460;2022-08-01T15:12:08;12.00;;;4.35;;
51636;SDS011;37713;53.254;6.460;2022-08-01T15:14:35;6.53;;;1.38;;
51636;SDS011;37713;53.254;6.460;2022-08-01T15:17:23;7.25;;;1.77;;
51636;SDS011;37713;53.254;6.460;2022-08-01T15:19:54;7.90;;;1.65;;
51636;SDS011;37713;53.254;6.460;2022-08-01T15:22:22;7.53;;;1.63;;
51636;SDS011;37713;53.254;6.460;2022-08-01T15:24:50;5.25;;;1.25;;
51636;SDS011;37713;53.254;6.460;2022-08-01T15:27:17;7.68;;;1.33;;
51636;SDS011;37713;53.254;6.460;2022-08-01T15:29:43;10.75;;;1.33;;
51636;SDS011;37713;53.254;6.460;2022-08-01T15:32:09;6.72;;;1.40;;
51636;SDS011;37713;53.254;6.460;2022-08-01T15:34:36;8.30;;;1.45;;
51636;SDS011;37713;53.254;6.460;2022-08-01T15:37:02;8.23;;;1.40;;
51636;SDS011;37713;53.254;6.460;2022-08-01T15:39:29;9.10;;;1.88;;
51636;SDS011;37713;53.254;6.460;2022-08-01T15:42:00;5.70;;;1.40;;
51636;SDS011;37713;53.254;6.460;2022-08-01T15:44:37;13.88;;;1.60;;
51636;SDS011;37713;53.254;6.460;2022-08-01T15:47:03;7.85;;;1.38;;